Time;durP1;ratioP1;P1;durP2;ratioP2;P2;SDS_P1;SDS_P2;PMS_P1;PMS_P2;Temp;Humidity;BMP_temperature;BMP_pressure;BME280_temperature;BME280_humidity;BME280_pressure;Samples;Min_cycle;Max_cycle;Signal;HPM_P1;HPM_P2
2022/10/03 00:00:15;;;;;;;7.07;6.07;;;;;;;11.71;100.00;98892.84;5073601;28;20236;-69
2022/10/03 00:03:17;;;;;;;7.00;6.30;;;;;;;11.68;100.00;98887.94;5073687;28;20248;-69
2022/10/03 00:06:03;;;;;;;7.37;6.73;;;;;;;11.63;100.00;98894.91;5071694;28;20204;-69
2022/10/03 00:09:09;;;;;;;7.20;6.60;;;;;;;11.59;100.00;98904.28;5073692;28;20189;-69
2022/10/03 00:11:43;;;;;;;7.93;7.13;;;;;;;11.64;100.00;98900.03;5073536;28;20221;-69
2022/10/03 00:14:13;;;;;;;8.13;6.90;;;;;;;11.56;100.00;98910.00;5073620;28;20186;-69
2022/10/03 00:16:53;;;;;;;7.10;6.50;;;;;;;11.57;100.00;98917.81;5073255;28;20679;-68
2022/10/03 00:19:35;;;;;;;7.53;6.83;;;;;;;11.56;100.00;98920.66;5073211;28;20218;-69
2022/10/03 00:22:19;;;;;;;7.87;6.93;;;;;;;11.54;100.00;98920.91;5073090;28;20590;-69
2022/10/03 00:24:53;;;;;;;8.70;7.90;;;;;;;11.53;100.00;98924.56;5073151;28;20639;-69
2022/10/03 00:27:28;;;;;;;7.40;6.70;;;;;;;11.59;100.00;98928.25;5073587;28;20207;-69
2022/10/03 00:30:10;;;;;;;8.00;7.20;;;;;;;11.60;100.00;98922.75;5072920;28;20224;-69
2022/10/03 00:32:52;;;;;;;6.60;6.10;;;;;;;11.58;100.00;98929.28;5073215;28;20204;-69
2022/10/03 00:35:48;;;;;;;8.60;7.37;;;;;;;11.56;100.00;98921.50;5073437;28;20321;-69
2022/10/03 00:38:52;;;;;;;8.63;7.93;;;;;;;11.57;100.00;98927.66;5073258;28;20216;-69
2022/10/03 00:42:12;;;;;;;8.37;7.40;;;;;;;11.57;100.00;98928.47;5073217;28;20238;-68
2022/10/03 00:45:03;;;;;;;7.93;7.23;;;;;;;11.55;100.00;98938.50;5073297;28;20191;-69
2022/10/03 00:48:08;;;;;;;10.53;8.20;;;;;;;11.57;100.00;98947.09;5073296;28;20266;-69
2022/10/03 00:50:51;;;;;;;8.53;7.73;;;;;;;11.57;100.00;98946.31;5071962;28;20231;-69
2022/10/03 00:53:27;;;;;;;11.00;8.73;;;;;;;11.56;100.00;98944.63;5073177;28;20188;-69
2022/10/03 00:55:59;;;;;;;10.37;9.30;;;;;;;11.57;100.00;98947.09;5072874;28;20658;-69
2022/10/03 00:58:41;;;;;;;9.00;8.20;;;;;;;11.61;100.00;98942.25;5073077;28;20212;-69
2022/10/03 01:01:44;;;;;;;11.23;8.97;;;;;;;11.56;100.00;98934.81;5072865;28;20707;-69
2022/10/03 01:04:19;;;;;;;11.53;8.77;;;;;;;11.61;100.00;98943.03;5065262;28;20229;-69
2022/10/03 01:07:01;;;;;;;9.50;8.43;;;;;;;11.57;100.00;98939.09;5076473;28;20651;-69
2022/10/03 01:09:36;;;;;;;9.67;8.67;;;;;;;11.55;100.00;98946.50;5075405;28;20186;-69
2022/10/03 01:12:09;;;;;;;9.57;8.30;;;;;;;11.57;100.00;98956.94;5076541;28;20188;-69
2022/10/03 01:14:58;;;;;;;9.67;8.67;;;;;;;11.57;100.00;98947.09;5076483;28;20204;-69
2022/10/03 01:17:48;;;;;;;9.83;8.83;;;;;;;11.56;100.00;98936.66;5076566;28;20196;-69
2022/10/03 01:20:27;;;;;;;8.97;8.07;;;;;;;11.59;100.00;98936.25;5074904;28;20287;-69
2022/10/03 01:23:14;;;;;;;9.73;8.80;;;;;;;11.54;100.00;98928.06;5076563;28;20236;-69
2022/10/03 01:25:52;;;;;;;10.00;9.03;;;;;;;11.47;100.00;98938.69;5076248;28;20200;-69
2022/10/03 01:31:29;;;;;;;9.67;8.77;;;;;;;11.43;100.00;98945.44;5076446;28;20207;-69
2022/10/03 01:34:22;;;;;;;10.30;8.13;;;;;;;11.46;100.00;98945.06;5076464;28;20184;-69
2022/10/03 01:37:01;;;;;;;10.10;9.10;;;;;;;11.44;100.00;98944.41;5076303;28;20189;-69
2022/10/03 01:39:37;;;;;;;10.50;9.47;;;;;;;11.47;100.00;98949.34;5076757;28;20193;-69
2022/10/03 01:42:12;;;;;;;10.57;9.47;;;;;;;11.52;100.00;98938.91;5075131;28;20195;-70
2022/10/03 01:44:50;;;;;;;10.47;9.53;;;;;;;11.49;100.00;98947.28;5076151;28;20306;-70
2022/10/03 01:47:25;;;;;;;10.57;9.47;;;;;;;11.53;100.00;98956.50;5075830;28;20647;-70
2022/10/03 01:50:22;;;;;;;11.00;9.83;;;;;;;11.61;100.00;98959.03;5076082;28;20314;-69
2022/10/03 01:53:02;;;;;;;10.13;9.07;;;;;;;11.60;100.00;98961.88;5072905;28;20296;-69
2022/10/03 01:55:47;;;;;;;11.30;10.20;;;;;;;11.62;100.00;98960.66;5074803;28;20189;-69
2022/10/03 01:58:51;;;;;;;12.80;11.50;;;;;;;11.58;100.00;98975.38;5075936;28;20190;-69
2022/10/03 02:01:23;;;;;;;12.17;11.00;;;;;;;11.59;100.00;98984.19;5075657;28;20366;-69
2022/10/03 02:04:03;;;;;;;14.77;12.10;;;;;;;11.65;100.00;98980.72;5075376;28;20671;-69
2022/10/03 02:06:39;;;;;;;14.27;11.53;;;;;;;11.64;100.00;98984.44;5075850;28;20201;-69
2022/10/03 02:09:29;;;;;;;12.43;11.23;;;;;;;11.58;100.00;98990.53;5074405;28;20273;-69
2022/10/03 02:12:07;;;;;;;13.57;12.20;;;;;;;11.62;100.00;98986.50;5075999;28;20547;-69
2022/10/03 02:14:53;;;;;;;13.93;12.47;;;;;;;11.61;100.00;98982.19;5075641;28;20191;-69
2022/10/03 02:17:27;;;;;;;13.47;11.93;;;;;;;11.59;100.00;98986.84;5058932;28;20560;-69
2022/10/03 02:20:04;;;;;;;15.13;13.03;;;;;;;11.57;100.00;98987.03;5074843;28;20719;-69
2022/10/03 02:22:42;;;;;;;13.70;12.37;;;;;;;11.59;100.00;98985.03;5075164;28;20184;-69
2022/10/03 02:25:21;;;;;;;14.70;13.23;;;;;;;11.62;100.00;98991.81;5075442;28;20189;-69
2022/10/03 02:28:02;;;;;;;16.07;13.10;;;;;;;11.59;100.00;98990.34;5074962;28;20191;-69
2022/10/03 02:30:32;;;;;;;14.87;13.30;;;;;;;11.54;100.00;98989.31;5075061;28;20220;-69
2022/10/03 02:33:30;;;;;;;15.20;12.73;;;;;;;11.55;100.00;98983.78;5074881;28;20542;-69
2022/10/03 02:36:33;;;;;;;14.70;13.30;;;;;;;11.56;100.00;98984.59;5074160;28;20193;-69
2022/10/03 02:39:23;;;;;;;14.70;12.60;;;;;;;11.55;100.00;98986.44;5074021;28;20193;-69
2022/10/03 02:42:14;;;;;;;14.20;12.67;;;;;;;11.53;100.00;98993.81;5074076;28;20193;-70
2022/10/03 02:45:02;;;;;;;15.30;13.60;;;;;;;11.51;100.00;98990.53;5074875;28;20225;-69
2022/10/03 02:48:01;;;;;;;17.67;13.17;;;;;;;11.53;100.00;98983.16;5075005;28;20196;-70
2022/10/03 02:50:46;;;;;;;14.77;13.13;;;;;;;11.55;100.00;98985.59;5072577;28;20224;-70
2022/10/03 02:53:15;;;;;;;14.00;12.53;;;;;;;11.53;100.00;98993.81;5074830;28;20206;-69
2022/10/03 02:56:14;;;;;;;15.03;13.47;;;;;;;11.52;100.00;98991.38;5074498;28;20664;-69
2022/10/03 02:58:49;;;;;;;14.27;12.83;;;;;;;11.53;100.00;98985.81;5074403;28;20629;-69
2022/10/03 03:01:22;;;;;;;12.93;11.73;;;;;;;11.53;100.00;98987.66;5074224;28;20221;-69
2022/10/03 03:04:04;;;;;;;15.50;13.87;;;;;;;11.55;100.00;98980.28;5074258;28;20698;-69
2022/10/03 03:06:46;;;;;;;18.93;12.87;;;;;;;11.50;100.00;98978.25;5074592;28;20189;-69
2022/10/03 03:09:47;;;;;;;14.27;12.83;;;;;;;11.52;100.00;98980.72;5073292;28;20188;-70
2022/10/03 03:12:41;;;;;;;15.47;12.77;;;;;;;11.41;100.00;98976.78;5074398;28;20270;-69
2022/10/03 03:15:32;;;;;;;14.63;13.07;;;;;;;11.46;100.00;98977.00;5074232;28;20201;-69
2022/10/03 03:18:37;;;;;;;13.20;11.90;;;;;;;11.43;100.00;98981.91;5074335;28;20198;-70
2022/10/03 03:21:40;;;;;;;14.20;11.80;;;;;;;11.37;100.00;98982.69;5059036;28;20231;-69
2022/10/03 03:24:22;;;;;;;12.30;11.00;;;;;;;11.33;100.00;98971.66;5073168;28;20217;-69
2022/10/03 03:27:03;;;;;;;13.30;11.37;;;;;;;11.32;100.00;98972.69;5074152;28;20193;-69
2022/10/03 03:29:33;;;;;;;13.87;11.90;;;;;;;11.32;100.00;98970.81;5057558;28;20624;-69
2022/10/03 03:32:15;;;;;;;13.47;11.70;;;;;;;11.35;100.00;98979.44;5074033;28;20200;-69
2022/10/03 03:34:48;;;;;;;12.50;11.27;;;;;;;11.32;100.00;98973.47;5057136;28;20189;-69
2022/10/03 03:37:26;;;;;;;12.13;10.93;;;;;;;11.32;100.00;98978.00;5072428;28;20193;-69
2022/10/03 03:40:16;;;;;;;16.93;11.60;;;;;;;11.30;100.00;98976.56;5073713;28;20228;-69
2022/10/03 03:43:10;;;;;;;12.30;10.17;;;;;;;11.27;100.00;98983.13;5072439;28;20189;-70
2022/10/03 03:45:53;;;;;;;12.53;11.23;;;;;;;11.30;100.00;98977.38;5073744;28;20212;-69
2022/10/03 03:48:49;;;;;;;12.60;11.03;;;;;;;11.32;100.00;98980.66;5072666;28;20238;-69
2022/10/03 03:51:41;;;;;;;13.70;11.70;;;;;;;11.37;100.00;98980.03;5072287;28;20789;-70
2022/10/03 03:54:25;;;;;;;16.33;11.17;;;;;;;11.34;100.00;98981.28;5073797;28;20195;-70
2022/10/03 03:57:16;;;;;;;14.30;10.77;;;;;;;11.37;100.00;98983.53;5073377;28;20648;-69
2022/10/03 03:59:55;;;;;;;14.80;10.33;;;;;;;11.34;100.00;98988.44;5073735;28;20226;-70
2022/10/03 04:02:33;;;;;;;9.83;8.80;;;;;;;11.33;100.00;98982.28;5073716;28;20215;-69
2022/10/03 04:05:34;;;;;;;11.03;9.73;;;;;;;11.34;100.00;98989.25;5073506;28;20212;-69
2022/10/03 04:08:20;;;;;;;9.43;8.43;;;;;;;11.38;100.00;98985.16;5073617;28;20216;-69
2022/10/03 04:10:58;;;;;;;12.83;8.67;;;;;;;11.45;100.00;98993.19;5073562;28;20228;-69
2022/10/03 04:13:35;;;;;;;13.30;9.40;;;;;;;11.40;100.00;98991.09;5073546;28;20197;-69
2022/10/03 04:19:56;;;;;;;10.27;9.23;;;;;;;11.34;100.00;98991.91;5072987;28;20200;-69
2022/10/03 04:22:29;;;;;;;12.40;9.13;;;;;;;11.36;100.00;99002.38;5073491;28;20196;-69
2022/10/03 04:24:58;;;;;;;12.87;9.70;;;;;;;11.33;100.00;98998.28;5073381;28;20240;-69
2022/10/03 04:27:52;;;;;;;10.37;9.37;;;;;;;11.30;100.00;98990.69;5073356;28;20211;-69
2022/10/03 04:30:40;;;;;;;10.50;9.50;;;;;;;11.32;100.00;98996.63;5072919;28;20711;-70
2022/10/03 04:33:17;;;;;;;10.77;9.70;;;;;;;11.30;100.00;98995.19;5073409;28;20188;-70
2022/10/03 04:36:05;;;;;;;11.33;9.33;;;;;;;11.32;100.00;99005.41;5074507;28;20196;-70
2022/10/03 04:38:57;;;;;;;11.53;10.33;;;;;;;11.29;100.00;99002.34;5077470;28;20296;-70
2022/10/03 04:41:55;;;;;;;13.70;9.60;;;;;;;11.25;100.00;99005.63;5077310;28;20220;-70
2022/10/03 04:44:49;;;;;;;12.97;9.73;;;;;;;11.26;100.00;99007.25;5077196;28;20216;-70
2022/10/03 04:47:45;;;;;;;11.90;10.70;;;;;;;11.26;100.00;99008.06;5077197;28;20197;-70
2022/10/03 04:50:11;;;;;;;12.90;11.03;;;;;;;11.26;100.00;99005.41;5077095;28;20217;-70
2022/10/03 04:53:05;;;;;;;12.50;11.30;;;;;;;11.26;100.00;99002.75;5077644;28;20212;-70
2022/10/03 04:55:40;;;;;;;11.17;10.17;;;;;;;11.25;100.00;99006.44;5076791;28;20204;-70
2022/10/03 04:58:15;;;;;;;11.87;10.30;;;;;;;11.32;100.00;99017.94;5076683;28;20192;-70
2022/10/03 05:01:04;;;;;;;12.67;10.43;;;;;;;11.35;100.00;99004.19;5076883;28;20231;-70
2022/10/03 05:03:43;;;;;;;12.73;9.97;;;;;;;11.27;100.00;99009.72;5076831;28;20219;-70
2022/10/03 05:06:48;;;;;;;11.70;10.47;;;;;;;11.23;100.00;99013.81;5076766;28;20280;-70
2022/10/03 05:09:39;;;;;;;11.67;10.67;;;;;;;11.27;100.00;99026.50;5076702;28;20202;-70
2022/10/03 05:12:28;;;;;;;13.00;11.00;;;;;;;11.30;100.00;99017.28;5076745;28;20189;-70
2022/10/03 05:15:13;;;;;;;13.30;11.97;;;;;;;11.33;100.00;99022.22;5076346;28;20192;-70
2022/10/03 05:17:53;;;;;;;13.90;12.47;;;;;;;11.30;100.00;99017.28;5076592;28;20290;-70
2022/10/03 05:20:27;;;;;;;17.00;12.73;;;;;;;11.33;100.00;99024.91;5074919;28;20271;-70
2022/10/03 05:23:17;;;;;;;18.00;11.90;;;;;;;11.35;100.00;99022.84;5076256;28;20219;-70
2022/10/03 05:25:53;;;;;;;15.37;13.40;;;;;;;11.27;100.00;99025.69;5076657;28;20189;-70
2022/10/03 05:28:35;;;;;;;16.50;13.80;;;;;;;11.34;100.00;99021.19;5075376;28;20199;-70
2022/10/03 05:31:32;;;;;;;18.80;13.83;;;;;;;11.32;100.00;99024.06;5076302;28;20225;-70
2022/10/03 05:34:30;;;;;;;17.67;13.33;;;;;;;11.35;100.00;99038.00;5058913;28;20660;-70
2022/10/03 05:37:30;;;;;;;18.17;14.17;;;;;;;11.29;100.00;99036.97;5076336;28;20239;-70
2022/10/03 05:40:27;;;;;;;22.13;15.13;;;;;;;11.32;100.00;99047.22;5076167;28;20239;-70
2022/10/03 05:43:12;;;;;;;20.67;15.47;;;;;;;11.27;100.00;99047.00;5066899;28;20231;-70
2022/10/03 05:45:47;;;;;;;17.87;14.73;;;;;;;11.30;100.00;99049.25;5074974;28;20216;-70
2022/10/03 05:48:32;;;;;;;23.07;15.50;;;;;;;11.30;100.00;99061.75;5075390;28;20219;-69
2022/10/03 05:51:20;;;;;;;19.07;15.50;;;;;;;11.30;100.00;99065.22;5075647;28;20224;-70
2022/10/03 05:54:17;;;;;;;19.47;16.43;;;;;;;11.23;100.00;99067.03;5075979;28;20201;-70
2022/10/03 05:57:08;;;;;;;22.83;16.17;;;;;;;11.29;100.00;99076.88;5076007;28;20193;-70
2022/10/03 05:59:53;;;;;;;20.60;16.43;;;;;;;11.22;100.00;99076.06;5075948;28;20556;-69
2022/10/03 06:02:46;;;;;;;25.27;17.00;;;;;;;11.21;100.00;99073.59;5075896;28;20211;-70
2022/10/03 06:05:24;;;;;;;21.10;16.40;;;;;;;11.19;100.00;99076.44;5075793;28;20213;-70
2022/10/03 06:08:24;;;;;;;22.13;18.17;;;;;;;11.18;100.00;99080.13;5074532;28;20189;-69
2022/10/03 06:11:24;;;;;;;22.27;16.53;;;;;;;11.27;100.00;99076.28;5075610;28;20224;-69
2022/10/03 06:14:09;;;;;;;22.63;16.50;;;;;;;11.30;100.00;99080.38;5075813;28;20185;-70
2022/10/03 06:17:12;;;;;;;25.17;16.07;;;;;;;11.33;100.00;99080.78;5075350;28;20263;-70
2022/10/03 06:19:48;;;;;;;20.87;16.23;;;;;;;11.27;100.00;99078.94;5075244;28;20243;-69
2022/10/03 06:22:33;;;;;;;19.47;15.93;;;;;;;11.26;100.00;99087.13;5075356;28;20193;-70
2022/10/03 06:25:28;;;;;;;20.90;16.50;;;;;;;11.28;100.00;99086.69;5075704;28;20229;-69
2022/10/03 06:28:13;;;;;;;20.60;16.43;;;;;;;11.35;100.00;99088.59;5076193;28;20208;-70
2022/10/03 06:31:13;;;;;;;23.60;17.83;;;;;;;11.36;100.00;99090.22;5075173;28;20220;-70
2022/10/03 06:34:07;;;;;;;21.77;15.63;;;;;;;11.40;100.00;99092.28;5074949;28;20189;-69
2022/10/03 06:36:45;;;;;;;25.67;16.83;;;;;;;11.30;100.00;99093.69;5075120;28;20205;-69
2022/10/03 06:39:36;;;;;;;17.50;15.23;;;;;;;11.34;100.00;99105.59;5075198;28;20570;-70
2022/10/03 06:42:21;;;;;;;20.53;15.90;;;;;;;11.43;100.00;99105.22;5074973;28;20227;-70
2022/10/03 06:45:09;;;;;;;16.97;14.13;;;;;;;11.37;100.00;99111.34;5074893;28;20228;-70
2022/10/03 06:47:53;;;;;;;17.07;15.30;;;;;;;11.33;100.00;99112.75;5075034;28;20192;-70
2022/10/03 06:50:41;;;;;;;24.30;16.43;;;;;;;11.40;100.00;99108.25;5074560;28;20798;-70
2022/10/03 06:53:17;;;;;;;23.00;17.57;;;;;;;11.39;100.00;99117.28;5074569;28;20209;-70
2022/10/03 06:56:04;;;;;;;20.50;15.97;;;;;;;11.34;100.00;99118.91;5074070;28;20181;-70
2022/10/03 06:58:50;;;;;;;20.00;17.10;;;;;;;11.37;100.00;99116.66;5074038;28;20359;-70
2022/10/03 07:01:42;;;;;;;22.03;16.57;;;;;;;11.39;100.00;99117.28;5073810;28;20235;-70
2022/10/03 07:04:11;;;;;;;19.90;15.33;;;;;;;11.34;100.00;99117.03;5073227;28;20213;-70
2022/10/03 07:06:53;;;;;;;20.03;14.87;;;;;;;11.32;100.00;99128.91;5074501;28;20208;-70
2022/10/03 07:09:48;;;;;;;19.03;15.47;;;;;;;11.39;100.00;99127.91;5074520;28;20189;-70
2022/10/03 07:12:42;;;;;;;20.90;14.67;;;;;;;11.49;100.00;99139.03;5073503;28;20195;-72
2022/10/03 07:15:35;;;;;;;16.93;13.80;;;;;;;11.61;100.00;99139.34;5074384;28;20205;-70
2022/10/03 07:18:28;;;;;;;16.80;14.17;;;;;;;11.49;100.00;99143.53;5074084;28;20189;-70
2022/10/03 07:20:57;;;;;;;16.13;13.77;;;;;;;11.53;100.00;99145.59;5069370;28;20753;-70
2022/10/03 07:23:42;;;;;;;20.17;14.37;;;;;;;11.53;100.00;99142.94;5073788;28;20265;-70
2022/10/03 07:26:49;;;;;;;21.30;15.00;;;;;;;11.53;100.00;99142.94;5074103;28;20242;-70
2022/10/03 07:29:49;;;;;;;17.40;12.83;;;;;;;11.63;100.00;99146.09;5073664;28;20208;-70
2022/10/03 07:32:53;;;;;;;15.93;13.37;;;;;;;11.62;100.00;99151.63;5072956;28;20196;-70
2022/10/03 07:38:59;;;;;;;16.17;13.43;;;;;;;11.54;100.00;99160.59;5072840;28;20179;-70
2022/10/03 07:41:42;;;;;;;18.53;14.30;;;;;;;11.56;100.00;99147.88;5073932;28;20226;-70
2022/10/03 07:44:40;;;;;;;19.27;14.03;;;;;;;11.61;100.00;99148.13;5073718;28;20223;-70
2022/10/03 07:47:32;;;;;;;18.60;15.00;;;;;;;11.68;100.00;99150.81;5073869;28;20193;-71
2022/10/03 07:50:05;;;;;;;19.07;12.90;;;;;;;11.64;100.00;99152.25;5073515;28;20723;-71
2022/10/03 07:53:11;;;;;;;12.87;11.20;;;;;;;11.61;100.00;99157.97;5073889;28;20195;-70
2022/10/03 07:55:59;;;;;;;15.70;11.37;;;;;;;11.60;100.00;99156.31;5074392;28;20199;-70
2022/10/03 07:58:57;;;;;;;20.07;12.00;;;;;;;11.69;100.00;99147.13;5074078;28;20196;-70
2022/10/03 08:01:36;;;;;;;12.80;9.70;;;;;;;11.66;100.00;99155.53;5073526;28;20228;-70
2022/10/03 08:04:26;;;;;;;14.90;11.23;;;;;;;11.84;100.00;99153.16;5073507;28;20201;-70
2022/10/03 08:07:14;;;;;;;14.60;10.93;;;;;;;11.85;100.00;99154.78;5072335;28;20561;-70
2022/10/03 08:10:11;;;;;;;14.57;10.60;;;;;;;11.92;100.00;99156.44;5073350;28;20232;-70
2022/10/03 08:13:01;;;;;;;16.13;10.03;;;;;;;11.81;100.00;99162.38;5073432;28;20190;-70
2022/10/03 08:15:30;;;;;;;12.90;9.70;;;;;;;11.91;100.00;99164.63;5072284;28;20198;-70
2022/10/03 08:18:31;;;;;;;15.63;9.60;;;;;;;11.95;100.00;99174.72;5073426;28;20206;-70
2022/10/03 08:21:24;;;;;;;14.60;9.17;;;;;;;11.97;100.00;99180.63;5072368;28;20232;-70
2022/10/03 08:24:05;;;;;;;15.53;9.03;;;;;;;11.95;100.00;99184.53;5072843;28;20217;-70
2022/10/03 08:27:04;;;;;;;12.20;7.73;;;;;;;11.99;100.00;99185.78;5073871;28;20238;-70
2022/10/03 08:30:02;;;;;;;11.30;8.53;;;;;;;11.89;100.00;99180.81;5071605;28;20219;-70
2022/10/03 08:32:47;;;;;;;17.40;8.77;;;;;;;11.81;100.00;99182.84;5072338;28;20262;-70
2022/10/03 08:35:37;;;;;;;14.17;8.20;;;;;;;11.94;100.00;99173.03;5073230;28;20200;-70
2022/10/03 08:38:32;;;;;;;15.47;7.77;;;;;;;11.98;100.00;99179.63;5073326;28;20192;-70
2022/10/03 08:41:36;;;;;;;10.37;7.13;;;;;;;12.18;100.00;99185.00;5073114;28;20259;-70
2022/10/03 08:44:39;;;;;;;9.53;6.73;;;;;;;12.08;100.00;99189.91;5073019;28;20566;-70
2022/10/03 08:47:12;;;;;;;12.63;7.20;;;;;;;12.11;100.00;99184.19;5072716;28;20235;-70
2022/10/03 08:49:57;;;;;;;12.23;7.43;;;;;;;11.91;100.00;99184.13;5072646;28;20730;-70
2022/10/03 08:52:50;;;;;;;13.73;8.03;;;;;;;12.09;100.00;99186.22;5073045;28;20201;-70
2022/10/03 08:55:35;;;;;;;11.63;7.47;;;;;;;12.10;100.00;99188.69;5073654;28;20202;-70
2022/10/03 08:58:37;;;;;;;11.60;7.73;;;;;;;12.09;100.00;99188.88;5072855;28;20191;-70
2022/10/03 09:01:27;;;;;;;12.67;7.60;;;;;;;11.92;100.00;99190.25;5071414;28;20231;-70
2022/10/03 09:04:18;;;;;;;13.13;7.90;;;;;;;11.94;100.00;99188.22;5073316;28;20516;-70
2022/10/03 09:07:07;;;;;;;12.97;8.27;;;;;;;12.00;100.00;99193.56;5072672;28;20196;-71
2022/10/03 09:09:48;;;;;;;13.30;8.27;;;;;;;12.09;100.00;99183.53;5072897;28;20218;-70
2022/10/03 09:12:24;;;;;;;12.13;7.83;;;;;;;12.11;100.00;99179.66;5072574;28;20740;-70
2022/10/03 09:15:21;;;;;;;11.37;7.60;;;;;;;12.00;100.00;99182.91;5072721;28;20197;-71
2022/10/03 09:18:14;;;;;;;13.90;7.83;;;;;;;11.97;100.00;99188.63;5072785;28;20281;-70
2022/10/03 09:20:59;;;;;;;10.00;7.20;;;;;;;12.09;100.00;99189.72;5072731;28;20233;-70
2022/10/03 09:23:32;;;;;;;12.53;7.03;;;;;;;12.21;100.00;99185.41;5074551;28;20649;-70
2022/10/03 09:26:33;;;;;;;12.73;7.30;;;;;;;12.17;100.00;99186.03;5076180;28;20231;-71
2022/10/03 09:29:17;;;;;;;12.03;6.33;;;;;;;12.05;100.00;99193.78;5075951;28;20192;-70
2022/10/03 09:32:06;;;;;;;10.30;6.20;;;;;;;12.13;100.00;99188.28;5076202;28;20206;-70
2022/10/03 09:34:32;;;;;;;10.40;6.47;;;;;;;12.34;100.00;99179.31;5076191;28;20192;-70
2022/10/03 09:37:36;;;;;;;8.73;5.43;;;;;;;12.25;100.00;99181.31;5076192;28;20208;-71
2022/10/03 09:40:08;;;;;;;8.83;6.60;;;;;;;12.39;100.00;99183.00;5075713;28;20712;-70
2022/10/03 09:42:44;;;;;;;9.67;6.53;;;;;;;12.42;100.00;99169.25;5075769;28;20198;-70
2022/10/03 09:45:26;;;;;;;12.73;6.60;;;;;;;12.57;100.00;99169.88;5075548;28;20545;-70
2022/10/03 09:48:08;;;;;;;7.43;5.50;;;;;;;12.49;100.00;99171.94;5075074;28;20202;-70
2022/10/03 09:50:54;;;;;;;11.17;5.83;;;;;;;12.51;100.00;99169.88;5076012;28;20226;-70
2022/10/03 09:53:45;;;;;;;9.97;5.30;;;;;;;12.49;100.00;99172.78;5075868;28;20287;-70
2022/10/03 09:56:15;;;;;;;11.83;5.10;;;;;;;12.66;100.00;99170.50;5075771;28;20286;-70
2022/10/03 09:59:22;;;;;;;8.33;4.80;;;;;;;12.74;100.00;99175.63;5075684;28;20219;-71
2022/10/03 10:02:27;;;;;;;10.10;5.00;;;;;;;12.81;100.00;99166.63;5067951;28;20229;-71
2022/10/03 10:05:18;;;;;;;5.83;4.00;;;;;;;12.78;100.00;99161.69;5074108;28;20709;-71
2022/10/03 10:08:03;;;;;;;11.83;4.53;;;;;;;12.97;100.00;99171.53;5076172;28;20203;-71
2022/10/03 10:10:54;;;;;;;8.67;4.30;;;;;;;13.14;99.69;99175.44;5075191;28;20718;-70
2022/10/03 10:13:45;;;;;;;7.93;3.97;;;;;;;12.76;93.80;99173.59;5075174;28;20686;-70
2022/10/03 10:16:30;;;;;;;7.73;4.40;;;;;;;13.04;94.14;99179.56;5076101;28;20189;-70
2022/10/03 10:19:41;;;;;;;10.20;4.13;;;;;;;13.43;97.17;99184.84;5075184;28;20221;-70
2022/10/03 10:22:48;;;;;;;13.93;3.87;;;;;;;13.71;88.86;99174.66;5075096;28;20547;-70
2022/10/03 10:25:23;;;;;;;8.53;3.47;;;;;;;13.43;87.55;99169.59;5075206;28;20247;-71
2022/10/03 10:28:23;;;;;;;8.07;3.47;;;;;;;13.20;88.28;99179.94;5074077;28;20207;-71
2022/10/03 10:31:07;;;;;;;6.60;3.57;;;;;;;13.19;91.30;99174.78;5055929;28;20701;-71
2022/10/03 10:33:52;;;;;;;8.27;3.50;;;;;;;13.36;90.93;99176.84;5075046;28;20242;-70
2022/10/03 10:36:56;;;;;;;10.87;4.77;;;;;;;13.52;95.89;99179.03;5075573;28;20187;-70
2022/10/03 10:39:43;;;;;;;8.60;3.97;;;;;;;13.53;95.65;99183.38;5074738;28;20219;-71
2022/10/03 10:42:33;;;;;;;8.83;4.40;;;;;;;13.75;95.20;99187.38;5074652;28;20196;-70
2022/10/03 10:45:24;;;;;;;10.17;4.53;;;;;;;13.38;100.00;99188.13;5074373;28;20307;-70
2022/10/03 10:48:27;;;;;;;9.27;4.07;;;;;;;13.63;91.35;99189.09;5074488;28;20204;-71
2022/10/03 10:51:13;;;;;;;8.20;3.90;;;;;;;13.73;88.21;99188.63;5074644;28;20225;-70
2022/10/03 10:54:12;;;;;;;6.77;3.97;;;;;;;14.02;88.92;99183.56;5074938;28;20207;-71
2022/10/03 10:57:00;;;;;;;10.20;4.47;;;;;;;13.68;98.63;99186.59;5074675;28;20189;-70
2022/10/03 10:59:51;;;;;;;6.83;4.10;;;;;;;13.81;87.40;99180.38;5074297;28;20212;-70
2022/10/03 11:02:20;;;;;;;9.50;3.97;;;;;;;13.85;85.52;99171.72;5075391;28;20201;-70
2022/10/03 11:05:34;;;;;;;7.50;3.97;;;;;;;13.95;87.20;99165.91;5074402;28;20208;-70
2022/10/03 11:08:33;;;;;;;5.17;3.83;;;;;;;14.30;82.21;99175.22;5074358;28;20300;-70
2022/10/03 11:11:38;;;;;;;9.00;4.80;;;;;;;14.22;89.46;99184.31;5074065;28;20235;-70
2022/10/03 11:14:13;;;;;;;12.37;5.63;;;;;;;14.09;97.24;99168.31;5074127;28;20671;-71
2022/10/03 11:17:34;;;;;;;8.70;4.70;;;;;;;14.13;95.15;99168.69;5074433;28;20199;-71
2022/10/03 11:20:18;;;;;;;10.43;5.03;;;;;;;14.02;100.00;99164.03;5051803;28;20241;-71
2022/10/03 11:23:22;;;;;;;8.93;4.60;;;;;;;13.66;92.13;99164.59;5072009;28;20220;-71
2022/10/03 11:26:33;;;;;;;8.20;3.77;;;;;;;13.52;85.74;99165.66;5074342;28;20224;-70
2022/10/03 11:29:05;;;;;;;8.20;3.90;;;;;;;13.68;85.50;99172.41;5063214;28;20682;-70
2022/10/03 11:31:47;;;;;;;7.30;3.90;;;;;;;13.73;88.26;99168.06;5073578;28;20563;-70
2022/10/03 11:34:47;;;;;;;7.90;3.80;;;;;;;13.67;82.43;99168.09;5073784;28;20203;-70
2022/10/03 11:37:32;;;;;;;7.97;3.70;;;;;;;13.55;84.93;99170.59;5073867;28;20203;-70
2022/10/03 11:40:43;;;;;;;8.77;3.90;;;;;;;13.48;93.23;99163.66;5073318;28;20227;-71
2022/10/03 11:43:29;;;;;;;7.27;3.50;;;;;;;13.48;92.29;99163.66;5073679;28;20181;-70
2022/10/03 11:46:25;;;;;;;9.33;3.80;;;;;;;13.47;100.00;99168.16;5072996;28;20290;-71
2022/10/03 11:49:01;;;;;;;7.50;3.47;;;;;;;13.55;90.47;99165.25;5073569;28;20192;-71
2022/10/03 11:51:39;;;;;;;7.13;3.23;;;;;;;13.54;83.37;99163.63;5073681;28;20239;-71
2022/10/03 11:54:29;;;;;;;8.73;3.70;;;;;;;13.70;89.78;99165.00;5073556;28;20199;-71
2022/10/03 11:57:16;;;;;;;7.93;3.83;;;;;;;13.78;90.13;99159.41;5073272;28;20627;-71
2022/10/03 11:59:54;;;;;;;7.17;3.00;;;;;;;14.16;80.41;99158.38;5073485;28;20315;-70
2022/10/03 12:02:52;;;;;;;5.83;2.90;;;;;;;14.15;81.08;99158.63;5073216;28;20580;-70
2022/10/03 12:05:44;;;;;;;7.13;3.30;;;;;;;14.01;83.82;99155.19;5073702;28;20209;-70
2022/10/03 12:11:36;;;;;;;7.27;2.90;;;;;;;13.79;77.98;99156.53;5072635;28;20694;-71
2022/10/03 12:14:28;;;;;;;7.23;2.87;;;;;;;13.90;82.36;99158.53;5056099;28;20287;-70
2022/10/03 12:17:04;;;;;;;4.93;2.70;;;;;;;14.25;78.00;99148.28;5073494;28;20707;-71
2022/10/03 12:19:34;;;;;;;4.57;2.40;;;;;;;14.08;78.34;99153.31;5072283;28;20565;-71
2022/10/03 12:22:30;;;;;;;5.83;2.93;;;;;;;13.83;75.22;99147.03;5073772;28;20208;-70
2022/10/03 12:25:22;;;;;;;5.63;2.77;;;;;;;13.93;74.95;99152.75;5073560;28;20215;-71
2022/10/03 12:28:19;;;;;;;5.13;2.77;;;;;;;14.01;77.92;99139.13;5072128;28;20250;-71
2022/10/03 12:30:55;;;;;;;5.53;2.40;;;;;;;14.29;76.04;99123.56;5072635;28;20733;-69
2022/10/03 12:33:55;;;;;;;11.10;2.90;;;;;;;14.38;77.71;99129.47;5072919;28;20485;-70
2022/10/03 12:36:27;;;;;;;7.77;2.90;;;;;;;14.66;73.12;99119.16;5072662;28;20570;-70
2022/10/03 12:39:14;;;;;;;8.77;2.60;;;;;;;14.59;76.56;99121.06;5072718;28;20205;-70
2022/10/03 12:42:02;;;;;;;5.10;2.80;;;;;;;14.61;76.47;99124.34;5071457;28;20277;-70
2022/10/03 12:44:45;;;;;;;6.70;2.93;;;;;;;14.45;75.59;99127.56;5072954;28;20231;-70
2022/10/03 12:47:26;;;;;;;5.83;2.43;;;;;;;14.48;75.80;99116.44;5072951;28;20595;-71
2022/10/03 12:50:14;;;;;;;6.43;2.50;;;;;;;14.55;73.27;99115.34;5072752;28;20257;-70
2022/10/03 12:52:56;;;;;;;6.37;2.53;;;;;;;14.50;67.52;99111.66;5071792;28;20195;-70
2022/10/03 12:55:37;;;;;;;6.27;2.40;;;;;;;14.46;68.59;99102.44;5071669;28;20232;-71
2022/10/03 12:58:25;;;;;;;5.53;2.60;;;;;;;14.95;72.15;99108.59;5076202;28;20195;-70
2022/10/03 13:01:29;;;;;;;6.70;2.60;;;;;;;14.85;71.19;99105.59;5075741;28;20235;-70